< < Back
Terminal Aerodrome Forecast


Current Version              Previous Versions:   1  2  3  4  5  6  7  8  9  

Terminal Aerodrome Forecast

127
FTUS42 KILM 242300
TAFILM
TAF
KILM 242320Z 2500/2524 VRB02KT P6SM SCT250
     FM251800 27006KT P6SM SKC=



Latest METAR

327
SAUS70 KWBC 251200 RRA
MTRILM
METAR KILM 251153Z AUTO 00000KT 10SM CLR 07/07 A3000 RMK AO2 SLP158
T00720067 10106 20072 51012


USA.gov is the U.S. government's official web portal to all federal, state and local government web resources and services.